Phoenix, AZ

3:27 PM MST on March 31, 2015 (GMT -0700)
Phoenix Sky Harbor International | | Change Station
CLOSE
Current Station
Airport
Location: Phoenix,
Elevation: 1106 ft
Nearby Weather Stations

Elev 1106 ft 33.43 °N, 112.00 °W | Updated 36 minutes ago

Clear
Clear
93 °F
Feels Like 93 °F
N
6
Wind Variable Wind from Variable

Today
High -- | Low -- °F
--% Chance of Precip.
Yesterday
High -- | Low -- °F
Precip. -- in
6:17 AM 6:47 PM
Waxing Gibbous, 89% visible
Pressure 29.78 in
Visibility 10.0 miles
Clouds Few 12000 ft
Few 25000 ft
Dew Point 33 °F
Humidity 12%
Rainfall 0.00 in
Snow Depth Not available.
UV 6 out of 12
Pollen 11.10 out of 12
Air Quality Not available.
Flu Activity Not available.
METAR KPHX 312151Z COR VRB05KT 10SM FEW120 FEW250 34/01 A2984 RMK AO2 SLP085 T03390006

More Conditions Fewer Conditions

Pressure 29.78 in
Visibility 10.0 miles
Clouds Few 12000 ft
Few 25000 ft
Dew Point 33 °F
Humidity 12%
Rainfall 0.00 in
Snow Depth Not available.
UV 6 out of 12
Pollen 11.10 out of 12
Air Quality Not available.
Flu Activity Not available.
METAR KPHX 312151Z COR VRB05KT 10SM FEW120 FEW250 34/01 A2984 RMK AO2 SLP085 T03390006

More Conditions Fewer Conditions

10-Day Weather Forecast

Almanac

Astronomy

Mar. 31, 2015 Rise Set
Actual Time
Civil Twilight
Nautical Twilight
Astronomical Twilight
Moon
Length of Visible Light
Length of Day
Tomorrow will be .
, % of the Moon is Illuminated

Today's Extremes

State Highs State Lows

Community

WunderPhotos

Upload Photos

1,809,856 photos uploaded!

WunderBlogs® & News

Nearby

Air Quality

  Air Quality AQ Index Pollutant
Not available.

Snow Depth

Station Depth Elevation

Earthquake Activity

City Distance Mag. Time & Date
Minimum magnitude displayed is 2.5.

Coastal Water Temperatures

Place Temperature

Stations

Nearby Weather Stations

Station Location Temp. Windchill Dew Point Humidity Wind Precip. Elev Updated Type